Time;durP1;ratioP1;P1;durP2;ratioP2;P2;SDS_P1;SDS_P2;PMS_P1;PMS_P2;Temp;Humidity;BMP_temperature;BMP_pressure;BME280_temperature;BME280_humidity;BME280_pressure;Samples;Min_cycle;Max_cycle;Signal;HPM_P1;HPM_P2
2022/03/04 00:00:05;;;;;;;11.32;3.78;;;;;;;;;;5057366;28;20060;-73
2022/03/04 00:02:32;;;;;;;11.68;4.20;;;;;;;;;;5075518;28;20036;-73
2022/03/04 00:04:58;;;;;;;9.75;3.03;;;;;;;;;;5075309;28;20028;-73
2022/03/04 00:07:24;;;;;;;13.13;3.60;;;;;;;;;;5057284;28;20028;-73
2022/03/04 00:09:51;;;;;;;12.00;3.55;;;;;;;;;;5057274;28;20146;-72
2022/03/04 00:12:17;;;;;;;10.18;2.83;;;;;;;;;;5075158;28;20060;-73
2022/03/04 00:14:43;;;;;;;6.22;2.22;;;;;;;;;;5075107;28;20056;-73
2022/03/04 00:17:09;;;;;;;6.60;2.08;;;;;;;;;;5056947;28;20029;-73
2022/03/04 00:19:36;;;;;;;7.60;3.08;;;;;;;;;;5057157;28;20024;-72
2022/03/04 00:22:02;;;;;;;8.93;4.20;;;;;;;;;;5074888;28;20496;-72
2022/03/04 00:24:28;;;;;;;5.78;2.85;;;;;;;;;;5074955;28;20467;-72
2022/03/04 00:26:55;;;;;;;6.53;3.33;;;;;;;;;;5037126;28;20304;-72
2022/03/04 00:29:21;;;;;;;6.10;3.08;;;;;;;;;;5037007;28;20024;-72
2022/03/04 00:31:47;;;;;;;7.18;3.65;;;;;;;;;;5054779;28;20029;-72
2022/03/04 00:34:13;;;;;;;7.93;3.47;;;;;;;;;;5036677;28;20036;-72
2022/03/04 00:36:40;;;;;;;8.70;4.03;;;;;;;;;;5054593;28;20482;-72
2022/03/04 00:39:09;;;;;;;11.80;4.15;;;;;;;;;;5054571;28;20411;-72
2022/03/04 00:41:35;;;;;;;11.13;4.15;;;;;;;;;;5054638;28;20535;-72
2022/03/04 00:44:02;;;;;;;10.57;3.10;;;;;;;;;;5054415;28;20396;-72
2022/03/04 00:46:28;;;;;;;8.75;3.63;;;;;;;;;;5035429;28;20057;-72
2022/03/04 00:48:54;;;;;;;9.90;3.60;;;;;;;;;;5025766;28;20463;-72
2022/03/04 00:51:21;;;;;;;7.45;3.00;;;;;;;;;;5054310;28;20032;-72
2022/03/04 00:53:47;;;;;;;9.68;3.40;;;;;;;;;;5054263;28;20475;-72
2022/03/04 00:56:13;;;;;;;7.18;2.85;;;;;;;;;;5056619;28;20046;-72
2022/03/04 00:58:40;;;;;;;11.85;4.20;;;;;;;;;;5055606;28;20130;-72
2022/03/04 01:01:07;;;;;;;15.68;4.38;;;;;;;;;;5041948;28;20100;-72
2022/03/04 01:03:34;;;;;;;16.48;4.28;;;;;;;;;;5040244;28;20035;-72
2022/03/04 01:06:01;;;;;;;13.88;3.88;;;;;;;;;;5055465;28;20029;-72
2022/03/04 01:08:27;;;;;;;74.88;10.40;;;;;;;;;;5072787;28;20032;-73
2022/03/04 01:10:54;;;;;;;45.42;8.35;;;;;;;;;;5064140;28;20040;-73
2022/03/04 01:13:21;;;;;;;26.38;6.00;;;;;;;;;;5056070;28;20454;-73
2022/03/04 01:15:48;;;;;;;23.05;5.00;;;;;;;;;;5053161;28;20053;-73
2022/03/04 01:18:14;;;;;;;18.70;4.55;;;;;;;;;;5034167;28;20511;-73
2022/03/04 01:20:41;;;;;;;9.80;4.30;;;;;;;;;;5017231;28;20029;-73
2022/03/04 01:23:07;;;;;;;17.30;4.65;;;;;;;;;;5049608;28;20028;-72
2022/03/04 01:25:33;;;;;;;21.90;4.90;;;;;;;;;;5055632;28;20391;-72
2022/03/04 01:28:00;;;;;;;21.92;5.63;;;;;;;;;;5057943;28;20502;-73
2022/03/04 01:30:27;;;;;;;17.20;5.72;;;;;;;;;;5042455;28;20446;-73
2022/03/04 01:32:53;;;;;;;21.42;6.97;;;;;;;;;;5063167;28;20487;-72
2022/03/04 01:35:19;;;;;;;22.20;6.35;;;;;;;;;;5043335;28;20036;-72
2022/03/04 01:37:47;;;;;;;23.67;7.65;;;;;;;;;;5051320;28;20029;-72
2022/03/04 01:40:13;;;;;;;27.67;8.18;;;;;;;;;;5072109;28;20032;-73
2022/03/04 01:42:40;;;;;;;26.88;8.73;;;;;;;;;;5073290;28;20025;-74
2022/03/04 01:45:07;;;;;;;30.08;9.52;;;;;;;;;;5046530;28;20498;-73
2022/03/04 01:47:35;;;;;;;29.42;8.63;;;;;;;;;;5054202;28;20033;-73
2022/03/04 01:50:01;;;;;;;26.50;8.75;;;;;;;;;;5057622;28;20033;-73
2022/03/04 01:52:27;;;;;;;24.27;9.23;;;;;;;;;;5047550;28;20052;-73
2022/03/04 01:54:54;;;;;;;35.35;11.13;;;;;;;;;;5053650;28;20488;-73
2022/03/04 01:57:20;;;;;;;28.95;8.63;;;;;;;;;;5060796;28;20033;-73
2022/03/04 01:59:46;;;;;;;36.78;10.98;;;;;;;;;;5034267;28;20029;-73
2022/03/04 02:02:13;;;;;;;37.30;9.98;;;;;;;;;;5053154;28;20029;-73
2022/03/04 02:04:39;;;;;;;45.13;11.63;;;;;;;;;;5034882;28;20029;-73
2022/03/04 02:07:05;;;;;;;45.50;11.45;;;;;;;;;;5052719;28;20035;-73
2022/03/04 02:09:32;;;;;;;44.13;12.82;;;;;;;;;;5051546;28;20081;-73
2022/03/04 02:11:58;;;;;;;52.70;13.25;;;;;;;;;;5048623;28;20029;-73
2022/03/04 02:14:24;;;;;;;50.50;13.32;;;;;;;;;;5039388;28;20036;-73
2022/03/04 02:16:51;;;;;;;47.80;13.05;;;;;;;;;;5048320;28;20040;-73
2022/03/04 02:19:18;;;;;;;49.97;12.75;;;;;;;;;;5049259;28;20386;-73
2022/03/04 02:21:55;;;;;;;68.63;15.13;;;;;;;;;;5050612;28;20029;-73
2022/03/04 02:24:24;;;;;;;42.03;13.00;;;;;;;;;;5034651;28;20029;-73
2022/03/04 02:26:51;;;;;;;47.53;14.82;;;;;;;;;;5040011;28;20032;-74
2022/03/04 02:29:17;;;;;;;45.05;12.40;;;;;;;;;;5034218;28;20044;-74
2022/03/04 02:31:44;;;;;;;50.78;15.70;;;;;;;;;;5055327;28;20037;-73
2022/03/04 02:34:10;;;;;;;55.85;14.98;;;;;;;;;;5054961;28;20028;-74
2022/03/04 02:36:37;;;;;;;42.30;14.32;;;;;;;;;;5039994;28;20025;-72
2022/03/04 02:39:07;;;;;;;38.15;12.93;;;;;;;;;;5047289;28;20044;-74
2022/03/04 02:41:37;;;;;;;54.47;17.80;;;;;;;;;;5050544;28;20032;-72
2022/03/04 02:44:04;;;;;;;55.88;16.85;;;;;;;;;;5030795;28;20053;-73
2022/03/04 02:46:31;;;;;;;34.00;14.55;;;;;;;;;;5027551;28;20391;-74
2022/03/04 02:48:57;;;;;;;57.92;15.70;;;;;;;;;;5045818;28;20055;-75
2022/03/04 02:51:30;;;;;;;50.28;17.63;;;;;;;;;;5037483;28;20073;-74
2022/03/04 02:53:56;;;;;;;36.45;12.02;;;;;;;;;;5050697;28;20095;-73
2022/03/04 02:56:23;;;;;;;32.92;12.57;;;;;;;;;;5047147;28;20031;-74
2022/03/04 02:58:49;;;;;;;49.63;14.13;;;;;;;;;;5049188;28;20043;-74
2022/03/04 03:01:16;;;;;;;57.88;14.50;;;;;;;;;;5043189;28;20030;-74
2022/03/04 03:03:42;;;;;;;44.58;15.43;;;;;;;;;;5030149;28;20454;-74
2022/03/04 03:06:09;;;;;;;52.70;14.65;;;;;;;;;;5048737;28;20046;-73
2022/03/04 03:08:35;;;;;;;44.75;14.65;;;;;;;;;;5048118;28;20021;-75
2022/03/04 03:11:02;;;;;;;33.97;13.52;;;;;;;;;;5029053;28;20025;-74
2022/03/04 03:13:28;;;;;;;67.05;20.50;;;;;;;;;;5028350;28;20057;-74
2022/03/04 03:15:54;;;;;;;49.03;16.15;;;;;;;;;;5023174;28;20069;-75
2022/03/04 03:18:20;;;;;;;69.30;21.38;;;;;;;;;;5027686;28;20378;-75
2022/03/04 03:20:47;;;;;;;60.25;21.50;;;;;;;;;;5028069;28;20037;-74
2022/03/04 03:23:13;;;;;;;74.53;22.70;;;;;;;;;;5024409;28;20032;-74
2022/03/04 03:25:39;;;;;;;61.53;22.13;;;;;;;;;;5043449;28;20017;-74
2022/03/04 03:28:06;;;;;;;67.20;24.27;;;;;;;;;;5026187;28;20021;-74
2022/03/04 03:30:32;;;;;;;77.80;24.25;;;;;;;;;;5045024;28;20506;-74
2022/03/04 03:32:58;;;;;;;87.05;28.55;;;;;;;;;;5028382;28;20152;-74
2022/03/04 03:35:25;;;;;;;89.75;32.97;;;;;;;;;;5036001;28;20627;-73
2022/03/04 03:37:54;;;;;;;87.63;35.22;;;;;;;;;;5033014;28;20475;-74
2022/03/04 03:40:20;;;;;;;95.70;37.15;;;;;;;;;;5036551;28;20071;-73
2022/03/04 03:42:47;;;;;;;91.15;36.97;;;;;;;;;;5034475;28;20437;-72
2022/03/04 03:45:13;;;;;;;108.93;39.88;;;;;;;;;;5050401;28;20095;-72
2022/03/04 03:47:40;;;;;;;113.03;43.65;;;;;;;;;;5033159;28;20116;-73
2022/03/04 03:50:09;;;;;;;105.72;43.55;;;;;;;;;;5050000;28;20104;-75
2022/03/04 03:52:35;;;;;;;108.43;45.42;;;;;;;;;;5052398;28;20025;-75
2022/03/04 03:55:02;;;;;;;118.63;47.75;;;;;;;;;;5052712;28;20549;-73
2022/03/04 03:57:50;;;;;;;92.32;46.03;;;;;;;;;;5037969;28;20047;-73
2022/03/04 04:00:16;;;;;;;101.35;44.78;;;;;;;;;;5049865;28;20159;-74
2022/03/04 04:02:42;;;;;;;91.85;45.20;;;;;;;;;;5048016;28;20028;-74
2022/03/04 04:05:12;;;;;;;88.78;42.13;;;;;;;;;;5033191;28;20036;-74
2022/03/04 04:07:41;;;;;;;101.35;50.80;;;;;;;;;;5052892;28;20036;-74
2022/03/04 04:10:08;;;;;;;101.63;51.22;;;;;;;;;;5047825;28;20036;-74
2022/03/04 04:12:35;;;;;;;96.35;47.70;;;;;;;;;;5046218;28;20045;-76
2022/03/04 04:15:01;;;;;;;98.97;48.63;;;;;;;;;;5046163;28;20096;-75
2022/03/04 04:17:38;;;;;;;105.30;50.80;;;;;;;;;;5046581;28;20043;-73
2022/03/04 04:20:04;;;;;;;96.00;52.38;;;;;;;;;;5042436;28;20665;-74
2022/03/04 04:22:31;;;;;;;103.95;54.97;;;;;;;;;;5046014;28;20040;-74
2022/03/04 04:24:57;;;;;;;96.40;51.60;;;;;;;;;;5050240;28;20037;-74
2022/03/04 04:27:23;;;;;;;97.45;51.20;;;;;;;;;;5028936;28;20112;-73
2022/03/04 04:29:54;;;;;;;88.53;47.90;;;;;;;;;;5045499;28;20022;-75
2022/03/04 04:32:20;;;;;;;90.50;45.50;;;;;;;;;;5052119;28;20036;-76
2022/03/04 04:34:46;;;;;;;81.03;45.67;;;;;;;;;;5046458;28;20044;-75
2022/03/04 04:37:13;;;;;;;90.00;45.92;;;;;;;;;;5051248;28;20053;-73
2022/03/04 04:39:42;;;;;;;84.70;44.72;;;;;;;;;;5053168;28;20543;-76
2022/03/04 04:42:08;;;;;;;83.47;44.38;;;;;;;;;;5044790;28;20405;-73
2022/03/04 04:44:35;;;;;;;86.20;44.42;;;;;;;;;;5048982;28;20099;-77
2022/03/04 04:47:01;;;;;;;86.53;45.20;;;;;;;;;;5054560;28;20017;-77
2022/03/04 04:49:29;;;;;;;89.25;50.03;;;;;;;;;;5046792;28;20838;-75
2022/03/04 04:52:01;;;;;;;93.97;49.58;;;;;;;;;;5037979;28;20097;-78
2022/03/04 04:54:28;;;;;;;91.63;47.20;;;;;;;;;;5050063;28;20506;-76
2022/03/04 04:56:54;;;;;;;96.18;51.10;;;;;;;;;;5056347;28;20029;-73
2022/03/04 04:59:20;;;;;;;86.65;50.17;;;;;;;;;;5045884;28;20243;-75
2022/03/04 05:01:49;;;;;;;91.50;48.13;;;;;;;;;;5053167;28;20239;-75
2022/03/04 05:04:15;;;;;;;84.68;48.70;;;;;;;;;;5030054;28;20033;-75
2022/03/04 05:06:42;;;;;;;73.13;43.05;;;;;;;;;;5029011;28;20118;-73
2022/03/04 05:09:08;;;;;;;76.65;40.45;;;;;;;;;;5044437;28;20036;-75
2022/03/04 05:11:35;;;;;;;76.63;41.45;;;;;;;;;;5048183;28;20110;-77
2022/03/04 05:14:01;;;;;;;77.07;42.15;;;;;;;;;;5021614;28;20182;-77
2022/03/04 05:16:28;;;;;;;71.32;37.80;;;;;;;;;;5035960;28;20021;-81
2022/03/04 05:18:54;;;;;;;69.90;39.60;;;;;;;;;;5038547;28;20539;-78
2022/03/04 05:21:20;;;;;;;65.00;37.33;;;;;;;;;;5043941;28;20021;-79
2022/03/04 05:24:04;;;;;;;74.22;36.15;;;;;;;;;;5043088;28;20033;-79
2022/03/04 05:26:31;;;;;;;59.95;31.90;;;;;;;;;;5046411;28;20048;-77
2022/03/04 05:28:58;;;;;;;56.83;32.47;;;;;;;;;;5028495;28;20044;-76
2022/03/04 05:31:27;;;;;;;59.78;30.95;;;;;;;;;;5044913;28;20115;-77
2022/03/04 05:33:54;;;;;;;56.70;32.47;;;;;;;;;;5025548;28;20044;-77
2022/03/04 05:36:21;;;;;;;68.60;32.97;;;;;;;;;;5045764;28;20029;-79
2022/03/04 05:38:48;;;;;;;66.20;32.85;;;;;;;;;;5037602;28;20491;-77
2022/03/04 05:41:15;;;;;;;57.53;30.30;;;;;;;;;;5042432;28;20021;-79
2022/03/04 05:43:41;;;;;;;51.30;30.55;;;;;;;;;;5047603;28;20016;-76
2022/03/04 05:46:08;;;;;;;49.90;29.88;;;;;;;;;;5030976;28;20035;-78
2022/03/04 05:48:34;;;;;;;53.70;27.20;;;;;;;;;;5046548;28;20045;-76
2022/03/04 05:51:00;;;;;;;58.20;29.30;;;;;;;;;;5043904;28;20033;-75
2022/03/04 05:53:29;;;;;;;50.65;25.90;;;;;;;;;;5044711;28;20053;-75
2022/03/04 05:55:55;;;;;;;44.22;21.88;;;;;;;;;;5043779;28;20029;-77
2022/03/04 05:58:22;;;;;;;39.72;17.58;;;;;;;;;;5025794;28;20057;-76
2022/03/04 06:00:48;;;;;;;34.88;15.77;;;;;;;;;;5042975;28;20032;-75
2022/03/04 06:03:14;;;;;;;30.67;13.70;;;;;;;;;;5047851;28;20026;-75
2022/03/04 06:05:40;;;;;;;27.88;12.70;;;;;;;;;;5052303;28;20025;-74
2022/03/04 06:08:07;;;;;;;34.67;16.15;;;;;;;;;;5048730;28;20492;-74
2022/03/04 06:10:33;;;;;;;33.63;15.43;;;;;;;;;;5043060;28;20088;-73
2022/03/04 06:12:59;;;;;;;35.75;16.83;;;;;;;;;;5025190;28;20041;-75
2022/03/04 06:15:26;;;;;;;30.33;14.88;;;;;;;;;;5044115;28;20048;-73
2022/03/04 06:17:52;;;;;;;28.52;13.93;;;;;;;;;;5033713;28;20029;-73
2022/03/04 06:20:19;;;;;;;27.85;13.85;;;;;;;;;;5031596;28;20098;-74
2022/03/04 06:22:46;;;;;;;30.00;14.57;;;;;;;;;;5045851;28;20048;-73
2022/03/04 06:25:14;;;;;;;28.52;14.73;;;;;;;;;;5030120;28;20032;-74
2022/03/04 06:27:59;;;;;;;30.15;15.20;;;;;;;;;;5043748;28;20024;-73
2022/03/04 06:30:26;;;;;;;24.95;14.23;;;;;;;;;;5046033;28;20036;-75
2022/03/04 06:33:30;;;;;;;29.30;14.95;;;;;;;;;;5041463;28;20021;-74
2022/03/04 06:35:39;;;;;;;29.98;14.40;;;;;;;;;;5038458;28;20494;-75
2022/03/04 06:38:06;;;;;;;29.40;13.93;;;;;;;;;;5046156;28;20572;-75
2022/03/04 06:40:32;;;;;;;25.55;13.55;;;;;;;;;;5025634;28;20321;-75
2022/03/04 06:42:58;;;;;;;26.38;12.95;;;;;;;;;;5027908;28;20029;-74
2022/03/04 06:45:37;;;;;;;25.45;14.52;;;;;;;;;;5043592;28;20040;-74
2022/03/04 06:48:04;;;;;;;21.52;13.50;;;;;;;;;;5040023;28;20480;-74
2022/03/04 06:50:30;;;;;;;27.35;15.40;;;;;;;;;;5056882;28;20104;-74
2022/03/04 06:52:57;;;;;;;26.75;14.25;;;;;;;;;;5049735;28;20224;-73
2022/03/04 06:55:24;;;;;;;26.88;14.05;;;;;;;;;;5027367;28;20104;-75
2022/03/04 06:57:51;;;;;;;32.83;14.88;;;;;;;;;;5031881;28;20030;-73
2022/03/04 07:00:18;;;;;;;24.90;15.32;;;;;;;;;;5032333;28;20040;-74
2022/03/04 07:02:44;;;;;;;28.55;14.55;;;;;;;;;;5029857;28;20037;-74
2022/03/04 07:05:10;;;;;;;27.88;13.98;;;;;;;;;;5051045;28;20043;-73
2022/03/04 07:07:37;;;;;;;30.35;14.27;;;;;;;;;;5034924;28;20055;-75
2022/03/04 07:10:04;;;;;;;34.08;13.00;;;;;;;;;;5055547;28;20035;-74
2022/03/04 07:12:30;;;;;;;30.83;14.32;;;;;;;;;;5052899;28;20037;-75
2022/03/04 07:14:57;;;;;;;28.33;14.98;;;;;;;;;;5061195;28;20085;-75
2022/03/04 07:17:26;;;;;;;29.33;15.07;;;;;;;;;;5046018;28;20051;-73
2022/03/04 07:19:52;;;;;;;33.38;15.63;;;;;;;;;;5060398;28;20024;-74
2022/03/04 07:22:19;;;;;;;28.35;15.45;;;;;;;;;;5046381;28;20032;-76
2022/03/04 07:24:45;;;;;;;39.53;16.35;;;;;;;;;;5048076;28;20053;-73
2022/03/04 07:27:11;;;;;;;29.85;16.55;;;;;;;;;;5050661;28;20029;-74
2022/03/04 07:29:37;;;;;;;32.35;16.75;;;;;;;;;;5046164;28;20028;-74
2022/03/04 07:32:04;;;;;;;32.85;17.63;;;;;;;;;;5047186;28;20032;-71
2022/03/04 07:34:30;;;;;;;28.17;16.92;;;;;;;;;;5035086;28;20060;-72
2022/03/04 07:36:57;;;;;;;29.95;17.27;;;;;;;;;;5031671;28;20020;-74
2022/03/04 07:39:23;;;;;;;37.03;19.40;;;;;;;;;;5029785;28;20440;-73
2022/03/04 07:41:51;;;;;;;30.77;16.67;;;;;;;;;;5043586;28;20029;-74
2022/03/04 07:44:18;;;;;;;29.83;18.65;;;;;;;;;;5044123;28;20032;-74
2022/03/04 07:46:44;;;;;;;25.73;16.17;;;;;;;;;;5024834;28;20059;-73
2022/03/04 07:49:10;;;;;;;35.90;19.17;;;;;;;;;;5048984;28;20040;-75
2022/03/04 07:51:37;;;;;;;30.92;17.83;;;;;;;;;;5046759;28;20025;-74
2022/03/04 07:54:03;;;;;;;27.30;16.35;;;;;;;;;;5050168;28;20104;-75
2022/03/04 07:56:29;;;;;;;25.38;16.42;;;;;;;;;;5044894;28;20036;-74
2022/03/04 07:58:56;;;;;;;25.23;15.25;;;;;;;;;;5031811;28;20048;-73
2022/03/04 08:01:22;;;;;;;23.83;15.15;;;;;;;;;;5047038;28;20021;-73
2022/03/04 08:03:48;;;;;;;28.75;15.73;;;;;;;;;;5032482;28;20029;-74
2022/03/04 08:06:33;;;;;;;27.67;15.00;;;;;;;;;;5031823;28;20024;-79
2022/03/04 08:09:05;;;;;;;29.30;15.18;;;;;;;;;;5046986;28;20391;-74
2022/03/04 08:11:32;;;;;;;29.98;15.73;;;;;;;;;;5046894;28;20041;-76
2022/03/04 08:13:59;;;;;;;23.63;14.07;;;;;;;;;;5046582;28;20431;-74
2022/03/04 08:16:29;;;;;;;30.13;15.98;;;;;;;;;;5031833;28;20029;-74
2022/03/04 08:22:08;;;;;;;27.70;15.23;;;;;;;;;;5052012;28;20048;-73
2022/03/04 08:24:43;;;;;;;28.95;16.73;;;;;;;;;;5052403;28;20066;-71
2022/03/04 08:27:10;;;;;;;31.75;16.20;;;;;;;;;;5031432;28;20527;-76
2022/03/04 08:29:36;;;;;;;29.55;16.67;;;;;;;;;;5048530;28;20025;-72
2022/03/04 08:32:02;;;;;;;35.15;17.70;;;;;;;;;;5028103;28;20487;-74
2022/03/04 08:34:29;;;;;;;33.40;16.88;;;;;;;;;;5029739;28;20033;-75
2022/03/04 08:36:56;;;;;;;34.70;18.77;;;;;;;;;;5045892;28;20052;-74
2022/03/04 08:39:22;;;;;;;37.83;18.85;;;;;;;;;;5044228;28;20082;-74
2022/03/04 08:41:48;;;;;;;37.92;20.02;;;;;;;;;;5052519;28;20111;-73
2022/03/04 08:44:14;;;;;;;39.38;22.38;;;;;;;;;;5047108;28;20033;-72
2022/03/04 08:46:41;;;;;;;48.10;27.40;;;;;;;;;;5044906;28;20016;-73
2022/03/04 08:49:09;;;;;;;46.33;26.63;;;;;;;;;;5026297;28;20117;-75
2022/03/04 08:51:38;;;;;;;40.33;20.50;;;;;;;;;;5045006;28;20025;-74
2022/03/04 08:54:08;;;;;;;41.60;20.83;;;;;;;;;;5044972;28;20039;-72
2022/03/04 08:56:34;;;;;;;48.60;23.83;;;;;;;;;;5044884;28;20035;-72
2022/03/04 08:59:01;;;;;;;38.88;21.60;;;;;;;;;;5042278;28;20040;-73
2022/03/04 09:01:28;;;;;;;39.72;20.10;;;;;;;;;;5021793;28;20567;-74
2022/03/04 09:03:58;;;;;;;57.72;31.58;;;;;;;;;;5024464;28;20036;-73
2022/03/04 09:06:24;;;;;;;38.53;20.95;;;;;;;;;;5028173;28;20227;-73
2022/03/04 09:08:50;;;;;;;23.67;12.13;;;;;;;;;;5049291;28;20260;-73
2022/03/04 09:11:17;;;;;;;16.20;8.95;;;;;;;;;;5045644;28;20032;-73
2022/03/04 09:13:43;;;;;;;19.08;8.00;;;;;;;;;;5044495;28;20029;-72
2022/03/04 09:16:09;;;;;;;13.38;7.28;;;;;;;;;;5052414;28;20074;-74
2022/03/04 09:18:36;;;;;;;20.08;8.90;;;;;;;;;;5053834;28;20048;-74
2022/03/04 09:21:05;;;;;;;19.45;10.05;;;;;;;;;;5053288;28;20033;-74
2022/03/04 09:23:31;;;;;;;18.02;8.45;;;;;;;;;;5037106;28;20077;-73
2022/03/04 09:25:57;;;;;;;22.00;7.70;;;;;;;;;;5056553;28;20021;-75
2022/03/04 09:28:24;;;;;;;16.38;7.47;;;;;;;;;;5057444;28;20020;-76
2022/03/04 09:30:53;;;;;;;10.90;6.07;;;;;;;;;;5043133;28;20151;-76
2022/03/04 09:33:19;;;;;;;14.20;7.18;;;;;;;;;;5058171;28;20041;-76
2022/03/04 09:35:45;;;;;;;18.42;8.25;;;;;;;;;;5062782;28;20320;-74
2022/03/04 09:38:12;;;;;;;13.02;7.05;;;;;;;;;;5059623;28;20047;-75
2022/03/04 09:40:39;;;;;;;15.20;7.13;;;;;;;;;;5058139;28;20021;-77
2022/03/04 09:43:08;;;;;;;22.75;9.88;;;;;;;;;;5041124;28;20025;-75
2022/03/04 09:45:35;;;;;;;23.40;12.95;;;;;;;;;;5045163;28;20025;-77
2022/03/04 09:48:03;;;;;;;27.25;14.40;;;;;;;;;;5047502;28;20268;-75
2022/03/04 09:50:30;;;;;;;27.23;13.90;;;;;;;;;;5027668;28;20403;-75
2022/03/04 09:52:56;;;;;;;27.45;14.30;;;;;;;;;;5026494;28;20033;-76
2022/03/04 09:55:23;;;;;;;20.40;12.13;;;;;;;;;;5028992;28;20029;-76
2022/03/04 09:57:49;;;;;;;19.30;12.70;;;;;;;;;;5037601;28;20025;-77
2022/03/04 10:00:16;;;;;;;24.70;12.60;;;;;;;;;;5027293;28;20562;-76
2022/03/04 10:02:42;;;;;;;31.77;13.10;;;;;;;;;;5049535;28;20018;-77
2022/03/04 10:05:08;;;;;;;22.80;12.38;;;;;;;;;;5046163;28;20025;-79
2022/03/04 10:07:42;;;;;;;21.20;11.43;;;;;;;;;;5029749;28;20033;-79
2022/03/04 10:10:15;;;;;;;25.58;11.23;;;;;;;;;;5043406;28;20027;-77
2022/03/04 10:12:58;;;;;;;23.17;11.05;;;;;;;;;;5043540;28;20081;-77
2022/03/04 10:15:25;;;;;;;27.35;11.90;;;;;;;;;;5027920;28;20028;-78
2022/03/04 10:18:02;;;;;;;20.45;10.93;;;;;;;;;;5026832;28;20078;-78
2022/03/04 10:20:43;;;;;;;21.98;11.13;;;;;;;;;;5041790;28;20036;-78
2022/03/04 10:23:17;;;;;;;20.88;11.05;;;;;;;;;;5042073;28;20025;-80
2022/03/04 10:25:44;;;;;;;22.63;11.10;;;;;;;;;;5029726;28;20063;-79
2022/03/04 10:28:11;;;;;;;20.25;10.80;;;;;;;;;;5031088;28;20025;-79
2022/03/04 10:30:38;;;;;;;18.83;9.60;;;;;;;;;;5051533;28;20029;-79
2022/03/04 10:33:11;;;;;;;18.25;9.32;;;;;;;;;;5052044;28;20048;-80
2022/03/04 10:35:38;;;;;;;18.48;8.45;;;;;;;;;;5040896;28;20033;-79
2022/03/04 10:38:04;;;;;;;18.27;9.88;;;;;;;;;;5030692;28;20053;-79
2022/03/04 10:40:32;;;;;;;18.80;9.50;;;;;;;;;;5023432;28;20382;-80
2022/03/04 10:43:02;;;;;;;18.80;9.18;;;;;;;;;;5011559;28;20056;-79
2022/03/04 10:45:29;;;;;;;20.13;9.10;;;;;;;;;;5045867;28;20029;-79
2022/03/04 10:47:57;;;;;;;16.73;8.52;;;;;;;;;;5045904;28;20029;-78
2022/03/04 10:50:28;;;;;;;15.77;8.15;;;;;;;;;;5048323;28;20125;-80
2022/03/04 10:53:01;;;;;;;22.40;9.07;;;;;;;;;;5026474;28;20549;-76
2022/03/04 10:55:27;;;;;;;14.60;7.63;;;;;;;;;;5045452;28;20045;-79
2022/03/04 10:58:05;;;;;;;13.52;7.25;;;;;;;;;;5047454;28;20062;-78
2022/03/04 11:00:34;;;;;;;13.32;5.45;;;;;;;;;;5047987;28;20029;-79
2022/03/04 11:03:00;;;;;;;13.18;4.57;;;;;;;;;;5043994;28;20028;-78
2022/03/04 11:05:27;;;;;;;11.23;3.50;;;;;;;;;;5047540;28;20026;-79
2022/03/04 11:08:00;;;;;;;9.65;2.47;;;;;;;;;;5046485;28;20087;-77
2022/03/04 11:10:29;;;;;;;8.18;2.80;;;;;;;;;;5026837;28;20033;-80
2022/03/04 11:12:58;;;;;;;6.40;2.90;;;;;;;;;;5047345;28;20087;-77
2022/03/04 11:15:25;;;;;;;10.65;2.78;;;;;;;;;;5027687;28;20034;-79
2022/03/04 11:17:52;;;;;;;9.32;2.55;;;;;;;;;;5028965;28;20083;-77
2022/03/04 11:20:18;;;;;;;7.10;2.60;;;;;;;;;;5049207;28;20088;-76
2022/03/04 11:22:47;;;;;;;7.75;2.95;;;;;;;;;;5048341;28;20060;-76
2022/03/04 11:25:15;;;;;;;8.52;2.90;;;;;;;;;;5043748;28;20167;-78
2022/03/04 11:27:48;;;;;;;10.45;3.92;;;;;;;;;;5047728;28;20767;-78
2022/03/04 11:30:30;;;;;;;15.00;5.55;;;;;;;;;;5041793;28;20035;-79
2022/03/04 11:33:00;;;;;;;13.38;5.88;;;;;;;;;;5041827;28;20048;-77
2022/03/04 11:35:56;;;;;;;14.73;5.80;;;;;;;;;;5041027;28;20383;-77
2022/03/04 11:38:40;;;;;;;7.50;4.03;;;;;;;;;;5032909;28;20052;-76
2022/03/04 11:41:08;;;;;;;12.10;5.13;;;;;;;;;;5043752;28;20028;-76
2022/03/04 11:43:47;;;;;;;10.63;4.72;;;;;;;;;;5045725;28;20037;-77
2022/03/04 11:46:19;;;;;;;11.98;4.88;;;;;;;;;;5049558;28;20078;-76
2022/03/04 11:48:46;;;;;;;7.60;4.18;;;;;;;;;;5032227;28;20475;-75
2022/03/04 11:51:17;;;;;;;8.40;4.97;;;;;;;;;;5033078;28;20029;-76
2022/03/04 11:53:43;;;;;;;15.02;5.13;;;;;;;;;;5025411;28;20098;-76
2022/03/04 11:56:24;;;;;;;14.23;7.22;;;;;;;;;;5048813;28;20107;-75
2022/03/04 11:58:57;;;;;;;13.82;7.40;;;;;;;;;;5041784;28;20061;-77
2022/03/04 12:01:27;;;;;;;14.57;5.95;;;;;;;;;;5027859;28;20029;-77
2022/03/04 12:04:06;;;;;;;13.43;5.80;;;;;;;;;;5031183;28;20683;-76
2022/03/04 12:06:33;;;;;;;13.50;5.80;;;;;;;;;;5048709;28;20032;-77
2022/03/04 12:09:19;;;;;;;8.20;4.63;;;;;;;;;;5047929;28;20078;-76
2022/03/04 12:12:04;;;;;;;11.55;5.68;;;;;;;;;;5050444;28;20033;-76
2022/03/04 12:14:30;;;;;;;13.25;5.50;;;;;;;;;;5049501;28;20112;-76
2022/03/04 12:16:57;;;;;;;10.70;4.88;;;;;;;;;;5034118;28;20053;-77
2022/03/04 12:19:35;;;;;;;11.63;5.10;;;;;;;;;;5055067;28;20055;-76
2022/03/04 12:22:06;;;;;;;13.27;5.60;;;;;;;;;;5050736;28;20028;-77
2022/03/04 12:24:33;;;;;;;15.90;7.07;;;;;;;;;;5026480;28;20483;-76
2022/03/04 12:27:00;;;;;;;16.85;6.97;;;;;;;;;;5050006;28;20422;-76
2022/03/04 12:29:43;;;;;;;13.23;7.20;;;;;;;;;;5031798;28;20051;-77
2022/03/04 12:32:09;;;;;;;23.77;8.82;;;;;;;;;;5048702;28;20140;-78
2022/03/04 12:34:38;;;;;;;29.15;9.65;;;;;;;;;;5045450;28;20028;-77
2022/03/04 12:37:10;;;;;;;30.13;10.77;;;;;;;;;;5053361;28;20040;-77
2022/03/04 12:39:39;;;;;;;43.90;11.57;;;;;;;;;;5040042;28;20482;-77
2022/03/04 12:42:07;;;;;;;46.78;17.77;;;;;;;;;;5032384;28;20130;-76
2022/03/04 12:44:35;;;;;;;45.92;17.33;;;;;;;;;;5050867;28;20060;-75
2022/03/04 12:47:02;;;;;;;60.13;23.48;;;;;;;;;;5034035;28;20186;-76
2022/03/04 12:49:31;;;;;;;84.72;31.30;;;;;;;;;;5062255;28;20028;-79
2022/03/04 12:51:58;;;;;;;102.78;33.75;;;;;;;;;;5050673;28;20204;-75
2022/03/04 12:54:27;;;;;;;104.90;36.47;;;;;;;;;;5038780;28;20439;-74
2022/03/04 12:56:55;;;;;;;60.70;24.50;;;;;;;;;;5049565;28;20026;-75
2022/03/04 12:59:22;;;;;;;61.97;23.58;;;;;;;;;;5033169;28;20029;-75
2022/03/04 13:01:52;;;;;;;60.13;22.50;;;;;;;;;;5032390;28;20033;-77
2022/03/04 13:04:19;;;;;;;46.60;17.83;;;;;;;;;;5052973;28;20021;-77
2022/03/04 13:06:45;;;;;;;32.67;16.52;;;;;;;;;;5052799;28;20057;-76
2022/03/04 13:09:12;;;;;;;29.80;14.38;;;;;;;;;;5053094;28;20029;-78
2022/03/04 13:11:42;;;;;;;35.17;16.63;;;;;;;;;;5032227;28;20037;-78
2022/03/04 13:14:13;;;;;;;38.35;18.98;;;;;;;;;;5026514;28;20440;-77
2022/03/04 13:16:55;;;;;;;35.38;16.52;;;;;;;;;;5052947;28;20078;-76
2022/03/04 13:19:23;;;;;;;33.28;18.02;;;;;;;;;;5026804;28;20443;-76
2022/03/04 13:21:51;;;;;;;39.33;18.67;;;;;;;;;;5033428;28;20105;-76
2022/03/04 13:24:19;;;;;;;33.08;17.00;;;;;;;;;;5036365;28;20044;-76
2022/03/04 13:26:53;;;;;;;34.75;18.23;;;;;;;;;;5026358;28;20040;-77
2022/03/04 13:29:21;;;;;;;37.75;18.45;;;;;;;;;;5027221;28;20079;-77
2022/03/04 13:31:47;;;;;;;37.83;17.95;;;;;;;;;;5061532;28;20029;-76
2022/03/04 13:34:14;;;;;;;28.15;15.00;;;;;;;;;;5047057;28;20021;-79
2022/03/04 13:36:51;;;;;;;33.40;16.13;;;;;;;;;;5042691;28;20490;-76
2022/03/04 13:39:17;;;;;;;27.55;15.05;;;;;;;;;;5050963;28;20583;-77
2022/03/04 13:41:43;;;;;;;29.73;13.63;;;;;;;;;;5052781;28;20047;-77
2022/03/04 13:44:11;;;;;;;29.83;13.68;;;;;;;;;;5036224;28;20047;-79
2022/03/04 13:46:56;;;;;;;32.00;13.73;;;;;;;;;;5016431;28;20022;-78
2022/03/04 13:49:22;;;;;;;27.75;12.13;;;;;;;;;;5050170;28;20037;-74
2022/03/04 13:52:02;;;;;;;31.98;12.05;;;;;;;;;;5034032;28;20471;-77
2022/03/04 13:54:47;;;;;;;31.17;10.60;;;;;;;;;;5050803;28;20101;-75
2022/03/04 13:57:32;;;;;;;29.10;10.55;;;;;;;;;;5051211;28;20147;-76
2022/03/04 13:59:59;;;;;;;25.02;10.93;;;;;;;;;;5054293;28;20029;-75
2022/03/04 14:02:26;;;;;;;27.77;11.40;;;;;;;;;;5045528;28;20021;-77
2022/03/04 14:04:56;;;;;;;22.50;9.07;;;;;;;;;;5041642;28;20032;-77
2022/03/04 14:07:23;;;;;;;18.33;9.63;;;;;;;;;;5035567;28;20026;-76
2022/03/04 14:09:50;;;;;;;18.80;9.57;;;;;;;;;;5031213;28;20025;-77
2022/03/04 14:12:17;;;;;;;28.25;10.50;;;;;;;;;;5035521;28;20029;-76
2022/03/04 14:14:43;;;;;;;21.70;12.13;;;;;;;;;;5053138;28;20079;-77
2022/03/04 14:17:09;;;;;;;27.52;11.77;;;;;;;;;;5035529;28;20051;-77
2022/03/04 14:19:36;;;;;;;27.33;13.40;;;;;;;;;;5051675;28;20104;-78
2022/03/04 14:22:04;;;;;;;28.67;11.88;;;;;;;;;;5020558;28;20024;-78
2022/03/04 14:24:30;;;;;;;22.30;13.55;;;;;;;;;;5018118;28;20454;-77
2022/03/04 14:26:56;;;;;;;21.42;11.70;;;;;;;;;;5033014;28;20018;-76
2022/03/04 14:29:24;;;;;;;29.15;14.07;;;;;;;;;;5033787;28;20033;-77